Time;durP1;ratioP1;P1;durP2;ratioP2;P2;SDS_P1;SDS_P2;PMS_P1;PMS_P2;Temp;Humidity;BMP_temperature;BMP_pressure;BME280_temperature;BME280_humidity;BME280_pressure;Samples;Min_cycle;Max_cycle;Signal;HPM_P1;HPM_P2
2022/08/11 00:00:13;;;;;;;2.63;2.05;;;;;;;27.99;38.95;101191.38;5074899;28;20489;-75
2022/08/11 00:02:49;;;;;;;2.40;2.20;;;;;;;28.14;39.30;101187.50;5074820;28;20061;-76
2022/08/11 00:05:20;;;;;;;2.28;2.08;;;;;;;28.05;38.85;101189.81;5069472;28;20056;-75
2022/08/11 00:07:54;;;;;;;3.45;1.98;;;;;;;28.08;39.18;101188.25;5074931;28;20044;-76
2022/08/11 00:10:24;;;;;;;6.35;2.00;;;;;;;28.07;39.32;101193.06;5074151;28;20045;-75
2022/08/11 00:12:59;;;;;;;2.75;2.15;;;;;;;28.20;39.37;101193.56;5075031;28;20100;-75
2022/08/11 00:15:43;;;;;;;3.15;1.92;;;;;;;28.22;39.04;101184.75;5074347;28;20048;-75
2022/08/11 00:18:17;;;;;;;3.97;1.70;;;;;;;28.23;38.76;101187.22;5074912;28;20055;-75
2022/08/11 00:20:49;;;;;;;3.00;2.42;;;;;;;28.30;38.58;101192.91;5074423;28;20063;-75
2022/08/11 00:23:18;;;;;;;3.40;2.28;;;;;;;28.35;39.16;101182.50;5074568;28;20491;-76
2022/08/11 00:25:49;;;;;;;3.38;1.85;;;;;;;28.32;38.91;101191.69;5074373;28;20075;-75
2022/08/11 00:28:36;;;;;;;2.38;1.90;;;;;;;28.42;39.42;101191.81;5074941;28;20048;-75
2022/08/11 00:31:08;;;;;;;1.85;1.75;;;;;;;28.37;39.40;101200.63;5073917;28;20057;-76
2022/08/11 00:33:41;;;;;;;4.50;1.95;;;;;;;28.64;38.72;101200.41;5060573;28;20509;-76
2022/08/11 00:36:15;;;;;;;2.13;1.92;;;;;;;28.55;39.15;101199.97;5074323;28;20057;-76
2022/08/11 00:38:54;;;;;;;2.25;1.98;;;;;;;28.65;39.33;101192.78;5060519;28;20517;-75
2022/08/11 00:41:28;;;;;;;;;;;;;;;28.49;39.52;101199.50;5074569;28;20067;-76
2022/08/11 00:44:33;;;;;;;2.83;1.75;;;;;;;28.35;38.95;101191.72;5060570;28;19920;-75
2022/08/11 00:47:15;;;;;;;3.13;1.98;;;;;;;28.13;39.50;101197.16;5073690;28;20439;-75
2022/08/11 00:50:17;;;;;;;2.25;1.95;;;;;;;28.01;40.49;101200.25;5075374;28;20094;-76
2022/08/11 00:53:13;;;;;;;1.90;1.80;;;;;;;28.18;40.52;101198.78;5072753;28;20067;-75
2022/08/11 00:56:03;;;;;;;2.63;2.00;;;;;;;28.33;40.19;101182.09;5073716;28;20048;-75
2022/08/11 00:58:56;;;;;;;3.70;1.80;;;;;;;28.42;39.90;101189.00;5072393;28;20056;-75
2022/08/11 01:01:56;;;;;;;5.22;1.98;;;;;;;28.43;39.87;101186.97;5073886;28;20487;-75
2022/08/11 01:04:49;;;;;;;2.67;1.70;;;;;;;28.53;39.14;101196.69;5061331;28;20037;-76
2022/08/11 01:07:22;;;;;;;1.95;1.63;;;;;;;28.46;39.70;101185.41;5073653;28;20051;-75
2022/08/11 01:10:31;;;;;;;2.97;2.22;;;;;;;28.47;40.44;101187.00;5073747;28;20063;-76
2022/08/11 01:13:28;;;;;;;2.55;1.80;;;;;;;28.37;39.60;101189.34;5061879;28;20055;-75
2022/08/11 01:16:14;;;;;;;2.35;2.10;;;;;;;28.50;40.04;101186.25;5073594;28;20048;-75
2022/08/11 01:18:57;;;;;;;3.70;2.30;;;;;;;28.59;40.26;101185.91;5073381;28;20056;-75
2022/08/11 01:21:34;;;;;;;3.88;2.33;;;;;;;28.59;39.37;101178.25;5069649;28;20044;-75
2022/08/11 01:24:26;;;;;;;2.10;1.90;;;;;;;28.70;39.25;101173.50;5073506;28;20057;-75
2022/08/11 01:27:20;;;;;;;4.90;2.00;;;;;;;28.50;39.83;101166.53;5073352;28;20064;-76
2022/08/11 01:29:51;;;;;;;2.60;1.98;;;;;;;28.56;40.73;101168.59;5073479;28;20052;-75
2022/08/11 01:32:59;;;;;;;2.33;2.13;;;;;;;28.57;39.49;101163.78;5069743;28;20072;-75
2022/08/11 01:35:53;;;;;;;2.90;2.05;;;;;;;28.49;40.26;101148.03;5049668;28;20081;-75
2022/08/11 01:38:43;;;;;;;2.45;2.25;;;;;;;28.49;40.00;101145.22;5072911;28;20060;-75
2022/08/11 01:44:37;;;;;;;2.75;2.55;;;;;;;28.26;40.37;101120.91;5066728;28;20123;-75
2022/08/11 01:50:35;;;;;;;2.47;2.28;;;;;;;28.49;39.80;101114.25;5071651;28;20063;-76
2022/08/11 01:53:29;;;;;;;4.13;2.72;;;;;;;28.54;40.04;101108.28;5072400;28;20045;-75
2022/08/11 01:56:16;;;;;;;2.60;2.20;;;;;;;28.44;40.34;101102.16;5072704;28;20498;-76
2022/08/11 01:58:49;;;;;;;2.72;2.53;;;;;;;28.51;39.57;101100.59;5072730;28;20056;-76
2022/08/11 02:01:39;;;;;;;2.65;2.28;;;;;;;28.53;39.18;101101.00;5072481;28;20068;-75
2022/08/11 02:04:41;;;;;;;4.15;2.22;;;;;;;28.43;39.52;101114.63;5072039;28;20055;-76
2022/08/11 02:07:33;;;;;;;2.47;1.95;;;;;;;28.47;40.29;101108.19;5056481;28;20048;-76
2022/08/11 02:13:37;;;;;;;3.50;1.85;;;;;;;28.51;42.12;101097.78;5071925;28;20057;-76
2022/08/11 02:16:52;;;;;;;2.42;2.03;;;;;;;28.40;40.78;101104.13;5071026;28;20049;-75
2022/08/11 02:26:09;;;;;;;2.47;2.10;;;;;;;28.08;43.38;101093.41;5056070;28;20051;-76
2022/08/11 02:28:54;;;;;;;2.13;1.92;;;;;;;28.12;42.55;101097.09;5052300;28;20056;-75
2022/08/11 02:34:55;;;;;;;2.17;1.85;;;;;;;27.87;44.88;101094.84;5065886;28;20059;-75
2022/08/11 02:37:32;;;;;;;5.38;2.20;;;;;;;27.58;44.84;101100.19;5066341;28;20048;-75
2022/08/11 02:40:19;;;;;;;2.58;2.38;;;;;;;27.48;45.97;101100.84;5072011;28;20041;-76
2022/08/11 02:42:47;;;;;;;2.15;2.05;;;;;;;27.20;45.68;101099.31;5071898;28;20486;-75
2022/08/11 02:45:33;;;;;;;2.47;2.03;;;;;;;27.37;46.04;101103.56;5072046;28;20044;-75
2022/08/11 02:51:19;;;;;;;4.63;2.60;;;;;;;27.40;44.95;101097.16;5071873;28;20056;-76
2022/08/11 02:53:55;;;;;;;;;;;;;;;27.35;45.07;101101.13;5072482;28;20063;-75
2022/08/11 02:56:35;;;;;;;3.25;2.15;;;;;;;27.15;45.99;101097.66;5072034;28;19924;-75
2022/08/11 03:00:00;;;;;;;2.53;2.00;;;;;;;27.24;46.07;101094.56;5071922;28;20047;-75
2022/08/11 03:02:14;;;;;;;2.47;2.28;;;;;;;27.23;46.49;101092.94;5064027;28;20506;-75
2022/08/11 03:04:59;;;;;;;2.92;2.63;;;;;;;27.22;46.18;101094.16;5071663;28;20525;-75
2022/08/11 03:07:33;;;;;;;2.40;2.20;;;;;;;27.12;46.07;101095.63;5071896;28;20040;-75
2022/08/11 03:10:24;;;;;;;2.33;2.17;;;;;;;26.94;46.80;101095.41;5071954;28;20048;-75
2022/08/11 03:19:22;;;;;;;2.83;2.63;;;;;;;27.09;47.01;101094.38;5071735;28;20047;-75
2022/08/11 03:22:01;;;;;;;2.88;2.53;;;;;;;26.98;46.98;101090.66;5070808;28;20049;-75
2022/08/11 03:25:02;;;;;;;3.15;2.70;;;;;;;26.89;47.40;101087.28;5071241;28;20055;-75
2022/08/11 03:28:19;;;;;;;2.95;2.70;;;;;;;26.81;47.39;101090.00;5069727;28;20044;-75
2022/08/11 03:31:09;;;;;;;2.58;2.35;;;;;;;26.72;47.79;101088.66;5068396;28;20060;-75
2022/08/11 03:34:03;;;;;;;2.47;2.33;;;;;;;26.65;47.82;101081.75;5057489;28;20047;-75
2022/08/11 03:36:52;;;;;;;2.67;2.35;;;;;;;26.66;47.85;101090.97;5071555;28;20056;-75
2022/08/11 03:39:46;;;;;;;3.03;2.55;;;;;;;26.58;48.18;101084.44;5071401;28;20064;-75
2022/08/11 03:42:57;;;;;;;2.17;2.05;;;;;;;26.51;48.45;101082.34;5058973;28;20475;-75
2022/08/11 03:45:36;;;;;;;4.88;2.30;;;;;;;26.39;47.88;101086.16;5071474;28;20040;-75
2022/08/11 03:48:18;;;;;;;2.47;2.28;;;;;;;26.27;49.06;101087.22;5071369;28;20045;-76
2022/08/11 03:51:05;;;;;;;2.25;1.95;;;;;;;26.29;48.29;101084.00;5071059;28;20071;-75
2022/08/11 03:53:42;;;;;;;2.22;2.13;;;;;;;26.25;48.39;101085.97;5071315;28;20057;-75
2022/08/11 03:56:39;;;;;;;2.40;2.17;;;;;;;26.17;49.13;101085.00;5071398;28;20044;-75
2022/08/11 03:59:09;;;;;;;2.38;2.17;;;;;;;26.22;48.94;101084.69;5071174;28;20052;-75
2022/08/11 04:01:55;;;;;;;3.38;2.60;;;;;;;26.15;49.22;101078.97;5071286;28;20509;-75
2022/08/11 04:04:42;;;;;;;2.60;2.40;;;;;;;26.24;48.77;101079.53;5069763;28;20056;-76
2022/08/11 04:07:41;;;;;;;2.55;2.33;;;;;;;26.33;48.60;101089.69;5065896;28;20045;-77
2022/08/11 04:10:53;;;;;;;2.42;2.22;;;;;;;26.12;48.45;101088.94;5051135;28;20056;-76
2022/08/11 04:13:47;;;;;;;2.97;2.35;;;;;;;26.14;48.82;101078.16;5050703;28;20049;-76
2022/08/11 04:16:29;;;;;;;2.80;2.08;;;;;;;26.16;48.90;101075.75;5054634;28;20056;-76
2022/08/11 04:19:18;;;;;;;2.50;2.25;;;;;;;26.18;49.00;101078.19;5054240;28;20503;-75
2022/08/11 04:22:03;;;;;;;2.42;2.25;;;;;;;26.21;48.80;101074.66;5058738;28;20055;-76
2022/08/11 04:24:42;;;;;;;2.85;2.42;;;;;;;26.11;48.95;101078.91;5054226;28;20052;-76
2022/08/11 04:27:27;;;;;;;2.45;2.25;;;;;;;26.26;48.62;101077.19;5054581;28;20045;-76
2022/08/11 04:30:39;;;;;;;3.38;2.20;;;;;;;26.23;49.01;101074.28;5064401;28;20041;-76
2022/08/11 04:33:38;;;;;;;2.75;2.55;;;;;;;26.28;48.57;101072.00;5062199;28;20041;-76
2022/08/11 04:39:48;;;;;;;2.92;2.63;;;;;;;26.40;48.88;101078.56;5074325;28;20509;-76
2022/08/11 04:45:44;;;;;;;4.03;2.50;;;;;;;26.50;47.80;101077.94;5074160;28;20045;-76
2022/08/11 05:07:58;;;;;;;2.33;1.95;;;;;;;27.15;46.51;101105.28;5055737;28;20083;-84
2022/08/11 05:10:57;;;;;;;3.72;2.38;;;;;;;27.57;45.86;101103.34;5047560;28;20114;-84
2022/08/11 05:37:02;;;;;;;4.32;2.40;;;;;;;28.04;43.60;101098.19;5051645;28;20053;-85
